createdAt,value
2023-04-15T00:02:21.793Z,6.61
2023-04-15T00:07:23.640Z,6.67
2023-04-15T00:12:26.038Z,6.68
2023-04-15T00:17:27.984Z,6.68
2023-04-15T00:22:29.669Z,6.66
2023-04-15T00:27:31.628Z,6.61
2023-04-15T00:32:33.341Z,6.46
2023-04-15T00:37:35.392Z,6.39
2023-04-15T00:42:37.765Z,6.59
2023-04-15T00:47:41.749Z,6.60
2023-04-15T00:52:43.581Z,6.62
2023-04-15T00:57:45.536Z,6.44
2023-04-15T01:02:47.490Z,6.53
2023-04-15T01:07:49.436Z,6.47
2023-04-15T01:12:51.483Z,6.68
2023-04-15T01:17:53.241Z,6.65
2023-04-15T01:22:55.201Z,6.65
2023-04-15T01:27:57.051Z,6.57
2023-04-15T01:32:58.767Z,6.58
2023-04-15T01:38:07.434Z,6.37
2023-04-15T01:43:09.356Z,6.58
2023-04-15T01:48:11.242Z,6.62
2023-04-15T01:53:13.124Z,6.48
2023-04-15T01:58:16.471Z,6.43
2023-04-15T02:03:19.129Z,6.55
2023-04-15T02:08:20.985Z,6.54
2023-04-15T02:13:23.135Z,6.47
2023-04-15T02:18:24.905Z,6.48
2023-04-15T02:23:26.587Z,6.54
2023-04-15T02:28:28.358Z,6.54
2023-04-15T02:33:30.029Z,6.83
2023-04-15T02:38:32.042Z,6.64
2023-04-15T02:43:33.756Z,6.55
2023-04-15T02:48:35.995Z,6.53
2023-04-15T02:53:38.773Z,6.47
2023-04-15T02:58:40.662Z,6.44
2023-04-15T03:03:42.603Z,6.44
2023-04-15T03:08:45.214Z,6.69
2023-04-15T03:13:48.227Z,6.88
2023-04-15T03:19:00.671Z,6.83
2023-04-15T03:24:03.769Z,6.68
2023-04-15T03:29:05.755Z,6.54
2023-04-15T03:34:08.642Z,6.59
2023-04-15T03:39:11.247Z,6.72
2023-04-15T03:44:12.904Z,6.78
2023-04-15T03:49:14.629Z,6.79
2023-04-15T03:54:16.355Z,6.63
2023-04-15T03:59:19.331Z,6.75
2023-04-15T04:04:21.214Z,6.68
2023-04-15T04:09:22.895Z,6.67
2023-04-15T04:14:29.458Z,6.60
2023-04-15T04:19:31.312Z,6.54
2023-04-15T04:24:32.971Z,6.57
2023-04-15T04:29:34.693Z,6.74
2023-04-15T04:34:36.569Z,6.55
2023-04-15T04:39:38.270Z,6.65
2023-04-15T04:44:39.894Z,6.64
2023-04-15T04:49:41.600Z,6.61
2023-04-15T04:54:53.232Z,6.60
2023-04-15T04:59:54.938Z,6.83
2023-04-15T05:04:56.837Z,6.88
2023-04-15T05:09:58.501Z,6.87
2023-04-15T05:15:00.159Z,6.90
2023-04-15T05:20:02.514Z,6.92
2023-04-15T05:25:04.484Z,6.92
2023-04-15T05:30:07.261Z,6.99
2023-04-15T05:35:09.077Z,6.89
2023-04-15T05:40:11.394Z,7.05
2023-04-15T05:45:13.650Z,7.09
2023-04-15T05:50:15.852Z,7.06
2023-04-15T05:55:17.564Z,7.06
2023-04-15T06:00:20.127Z,7.06
2023-04-15T06:05:21.845Z,6.93
2023-04-15T06:10:23.493Z,7.13
2023-04-15T06:15:25.200Z,7.08
2023-04-15T06:20:26.821Z,6.99
2023-04-15T06:25:28.454Z,7.02
2023-04-15T06:30:30.040Z,7.05
2023-04-15T06:35:31.854Z,7.03
2023-04-15T06:40:33.765Z,7.07
2023-04-15T06:45:35.416Z,7.17
2023-04-15T06:50:37.728Z,7.00
2023-04-15T06:55:40.234Z,7.08
2023-04-15T07:00:42.074Z,7.17
2023-04-15T07:05:43.789Z,7.29
2023-04-15T07:10:47.170Z,7.32
2023-04-15T07:15:48.837Z,7.34
2023-04-15T07:20:50.456Z,7.40
2023-04-15T07:25:52.242Z,7.29
2023-04-15T07:30:54.018Z,7.43
2023-04-15T07:35:55.661Z,7.33
2023-04-15T07:40:58.174Z,7.53
2023-04-15T07:46:00.284Z,7.59
2023-04-15T07:51:02.791Z,7.69
2023-04-15T07:56:04.969Z,7.81
2023-04-15T08:01:06.902Z,8.02
2023-04-15T08:06:08.542Z,8.23
2023-04-15T08:11:10.268Z,8.35
2023-04-15T08:16:20.945Z,8.63
2023-04-15T08:21:22.932Z,8.81
2023-04-15T08:26:24.821Z,8.82
2023-04-15T08:31:27.902Z,9.04
2023-04-15T08:36:29.760Z,9.29
2023-04-15T08:41:47.913Z,9.24
2023-04-15T08:46:50.153Z,9.39
2023-04-15T08:51:51.810Z,9.52
2023-04-15T08:56:54.537Z,9.82
2023-04-15T09:01:57.627Z,9.85
2023-04-15T09:06:59.323Z,10.07
2023-04-15T09:12:01.667Z,9.81
2023-04-15T09:17:04.687Z,10.01
2023-04-15T09:22:06.645Z,9.74
2023-04-15T09:27:08.422Z,9.93
2023-04-15T09:32:14.725Z,10.34
2023-04-15T09:37:31.631Z,10.27
2023-04-15T09:42:34.302Z,9.77
2023-04-15T09:47:36.670Z,9.79
2023-04-15T09:52:46.087Z,9.46
2023-04-15T09:57:48.559Z,9.16
2023-04-15T10:02:52.238Z,9.22
2023-04-15T10:07:54.996Z,9.18
2023-04-15T10:12:59.917Z,9.16
2023-04-15T10:18:05.799Z,9.12
2023-04-15T10:23:11.534Z,9.12
2023-04-15T10:28:14.652Z,9.04
2023-04-15T10:33:20.640Z,8.97
2023-04-15T10:38:45.690Z,8.70
2023-04-15T10:43:56.021Z,8.89
2023-04-15T10:48:57.846Z,8.78
2023-04-15T10:54:00.835Z,8.88
2023-04-15T10:59:05.339Z,9.05
2023-04-15T11:04:07.445Z,9.27
2023-04-15T11:09:33.342Z,9.37
2023-04-15T11:14:40.392Z,9.22
2023-04-15T11:19:42.257Z,9.47
2023-04-15T11:24:50.588Z,9.20
2023-04-15T11:29:53.168Z,9.27
2023-04-15T11:34:54.920Z,9.18
2023-04-15T11:39:56.689Z,9.42
2023-04-15T11:45:12.693Z,9.58
2023-04-15T11:50:18.704Z,9.71
2023-04-15T11:55:20.750Z,9.78
2023-04-15T12:00:22.668Z,9.70
2023-04-15T12:05:24.415Z,9.74
2023-04-15T12:10:26.264Z,9.59
2023-04-15T12:15:28.048Z,9.62
2023-04-15T12:20:31.371Z,9.42
2023-04-15T12:25:35.562Z,9.52
2023-04-15T12:30:48.404Z,9.64
2023-04-15T12:35:50.110Z,9.92
2023-04-15T12:40:51.828Z,9.65
2023-04-15T12:45:53.627Z,9.58
2023-04-15T12:50:55.294Z,9.53
2023-04-15T12:55:57.190Z,9.58
2023-04-15T13:00:59.144Z,9.65
2023-04-15T13:06:02.341Z,9.79
2023-04-15T13:11:04.312Z,9.78
2023-04-15T13:16:06.772Z,9.83
2023-04-15T13:21:10.869Z,9.43
2023-04-15T13:26:13.380Z,9.60
2023-04-15T13:31:15.264Z,9.81
2023-04-15T13:36:17.156Z,9.68
2023-04-15T13:41:20.195Z,9.91
2023-04-15T13:46:22.363Z,10.02
2023-04-15T13:51:24.331Z,10.22
2023-04-15T13:56:26.759Z,10.14
2023-04-15T14:01:29.178Z,9.84
2023-04-15T14:06:31.680Z,10.11
2023-04-15T14:11:35.436Z,10.07
2023-04-15T14:16:37.261Z,10.18
2023-04-15T14:21:39.185Z,10.18
2023-04-15T14:26:41.169Z,9.98
2023-04-15T14:32:02.705Z,10.18
2023-04-15T14:37:06.978Z,9.91
2023-04-15T14:42:08.965Z,9.84
2023-04-15T14:47:10.995Z,9.93
2023-04-15T14:52:13.239Z,10.11
2023-04-15T14:57:15.401Z,10.37
2023-04-15T15:02:31.577Z,10.97
2023-04-15T15:07:40.940Z,10.78
2023-04-15T15:12:43.115Z,10.63
2023-04-15T15:17:45.287Z,10.85
2023-04-15T15:22:47.457Z,10.68
2023-04-15T15:27:49.537Z,10.95
2023-04-15T15:32:52.006Z,10.77
2023-04-15T15:37:55.050Z,10.90
2023-04-15T15:42:57.146Z,10.73
2023-04-15T15:48:00.212Z,10.59
2023-04-15T15:53:02.141Z,10.57
2023-04-15T15:58:03.977Z,10.85
2023-04-15T16:03:07.554Z,10.77
2023-04-15T16:08:09.848Z,10.50
2023-04-15T16:13:11.912Z,10.27
2023-04-15T16:18:16.773Z,10.25
2023-04-15T16:23:19.618Z,10.21
2023-04-15T16:28:26.751Z,10.25
2023-04-15T16:33:29.227Z,10.34
2023-04-15T16:38:31.555Z,10.41
2023-04-15T16:43:33.496Z,10.44
2023-04-15T16:48:35.339Z,10.43
2023-04-15T16:53:37.317Z,10.18
2023-04-15T16:58:39.557Z,10.10
2023-04-15T17:03:41.977Z,10.09
2023-04-15T17:08:44.771Z,9.89
2023-04-15T17:13:47.400Z,9.77
2023-04-15T17:18:50.651Z,9.76
2023-04-15T17:23:55.093Z,9.74
2023-04-15T17:28:56.899Z,9.71
2023-04-15T17:34:06.168Z,9.67
2023-04-15T17:39:11.957Z,9.65
2023-04-15T17:44:13.548Z,9.74
2023-04-15T17:49:15.272Z,9.44
2023-04-15T17:54:16.985Z,9.28
2023-04-15T17:59:18.721Z,9.20
2023-04-15T18:04:26.456Z,9.08
2023-04-15T18:09:29.305Z,9.09
2023-04-15T18:14:34.537Z,9.10
2023-04-15T18:19:36.740Z,9.05
2023-04-15T18:24:39.067Z,8.95
2023-04-15T18:29:40.770Z,9.09
2023-04-15T18:34:42.958Z,9.10
2023-04-15T18:39:44.811Z,9.09
2023-04-15T18:44:46.563Z,8.80
2023-04-15T18:49:48.213Z,9.12
2023-04-15T18:54:50.338Z,9.17
2023-04-15T18:59:52.244Z,8.83
2023-04-15T19:04:53.950Z,8.98
2023-04-15T19:10:02.726Z,8.76
2023-04-15T19:15:04.933Z,8.45
2023-04-15T19:20:07.125Z,8.37
2023-04-15T19:25:09.416Z,8.61
2023-04-15T19:30:11.275Z,8.78
2023-04-15T19:35:13.002Z,8.63
2023-04-15T19:40:14.758Z,8.41
2023-04-15T19:45:16.496Z,8.46
2023-04-15T19:50:19.316Z,8.51
2023-04-15T19:55:21.088Z,8.72
2023-04-15T20:00:22.810Z,8.61
2023-04-15T20:05:24.919Z,8.57
2023-04-15T20:10:27.172Z,8.51
2023-04-15T20:15:29.129Z,8.44
2023-04-15T20:20:31.012Z,8.25
2023-04-15T20:25:32.755Z,8.03
2023-04-15T20:30:34.429Z,7.73
2023-04-15T20:35:57.996Z,7.73
2023-04-15T20:40:59.726Z,7.87
2023-04-15T20:46:07.090Z,7.62
2023-04-15T20:51:19.786Z,7.72
2023-04-15T20:56:24.383Z,7.63
2023-04-15T21:01:26.084Z,7.52
2023-04-15T21:06:27.826Z,7.31
2023-04-15T21:16:38.618Z,7.27
2023-04-15T21:21:40.707Z,7.46
2023-04-15T21:26:42.420Z,7.48
2023-04-15T21:31:44.202Z,7.58
2023-04-15T21:37:00.487Z,7.48
2023-04-15T21:42:03.116Z,7.45
2023-04-15T21:47:04.930Z,7.36
2023-04-15T21:52:06.815Z,7.22
2023-04-15T21:57:08.495Z,7.14
2023-04-15T22:02:10.589Z,7.18
2023-04-15T22:07:12.384Z,7.23
2023-04-15T22:12:14.122Z,7.29
2023-04-15T22:17:15.854Z,7.48
2023-04-15T22:22:17.567Z,7.75
2023-04-15T22:27:21.544Z,7.75
2023-04-15T22:32:23.242Z,7.70
2023-04-15T22:37:25.001Z,7.40
2023-04-15T22:42:26.648Z,7.41
2023-04-15T22:47:28.325Z,7.50
2023-04-15T22:52:31.280Z,7.35
2023-04-15T22:57:33.140Z,7.51
2023-04-15T23:02:35.059Z,7.52
2023-04-15T23:07:37.059Z,7.44
2023-04-15T23:12:38.744Z,7.42
2023-04-15T23:17:42.551Z,7.39
2023-04-15T23:22:44.207Z,7.38
2023-04-15T23:27:45.869Z,7.47
2023-04-15T23:32:47.607Z,7.51
2023-04-15T23:37:49.321Z,7.51
2023-04-15T23:42:51.829Z,7.43
2023-04-15T23:47:53.542Z,7.29
2023-04-15T23:52:55.203Z,7.24
2023-04-15T23:57:57.273Z,7.51
